sensor_id;sensor_type;location;lat;lon;timestamp;pressure;altitude;pressure_sealevel;temperature;humidity
72525;BME280;60547;48.502;8.996;2023-04-10T00:00:59;98513.22;;;4.27;72.34
72525;BME280;60547;48.502;8.996;2023-04-10T00:03:26;98508.81;;;4.18;72.45
72525;BME280;60547;48.502;8.996;2023-04-10T00:05:53;98514.75;;;4.20;72.87
72525;BME280;60547;48.502;8.996;2023-04-10T00:08:22;98517.00;;;4.11;73.58
72525;BME280;60547;48.502;8.996;2023-04-10T00:10:48;98509.03;;;3.99;73.01
72525;BME280;60547;48.502;8.996;2023-04-10T00:13:14;98512.19;;;4.01;73.17
72525;BME280;60547;48.502;8.996;2023-04-10T00:15:40;98511.81;;;4.03;73.53
72525;BME280;60547;48.502;8.996;2023-04-10T00:18:05;98501.88;;;3.91;73.70
72525;BME280;60547;48.502;8.996;2023-04-10T00:20:31;98505.81;;;3.94;73.65
72525;BME280;60547;48.502;8.996;2023-04-10T00:22:56;98505.78;;;3.90;74.29
72525;BME280;60547;48.502;8.996;2023-04-10T00:25:22;98504.31;;;4.00;73.71
72525;BME280;60547;48.502;8.996;2023-04-10T00:27:48;98492.03;;;3.90;73.95
72525;BME280;60547;48.502;8.996;2023-04-10T00:30:13;98493.91;;;3.82;73.82
72525;BME280;60547;48.502;8.996;2023-04-10T00:32:39;98502.91;;;3.79;74.70
72525;BME280;60547;48.502;8.996;2023-04-10T00:35:06;98489.50;;;3.74;74.53
72525;BME280;60547;48.502;8.996;2023-04-10T00:37:32;98493.78;;;3.72;74.11
72525;BME280;60547;48.502;8.996;2023-04-10T00:39:58;98500.06;;;3.69;74.58
72525;BME280;60547;48.502;8.996;2023-04-10T00:42:23;98491.38;;;3.67;75.17
72525;BME280;60547;48.502;8.996;2023-04-10T00:44:49;98499.22;;;3.65;74.42
72525;BME280;60547;48.502;8.996;2023-04-10T00:47:15;98494.88;;;3.64;74.51
72525;BME280;60547;48.502;8.996;2023-04-10T00:49:41;98491.38;;;3.67;74.34
72525;BME280;60547;48.502;8.996;2023-04-10T00:52:08;98493.72;;;3.65;74.81
72525;BME280;60547;48.502;8.996;2023-04-10T00:54:34;98488.47;;;3.52;74.58
72525;BME280;60547;48.502;8.996;2023-04-10T00:57:01;98485.63;;;3.45;74.41
72525;BME280;60547;48.502;8.996;2023-04-10T00:59:27;98472.97;;;3.37;75.28
72525;BME280;60547;48.502;8.996;2023-04-10T01:01:53;98469.03;;;3.38;75.54
72525;BME280;60547;48.502;8.996;2023-04-10T01:04:21;98471.78;;;3.38;75.17
72525;BME280;60547;48.502;8.996;2023-04-10T01:07:14;98475.38;;;3.42;75.23
72525;BME280;60547;48.502;8.996;2023-04-10T01:09:50;98487.09;;;3.36;75.19
72525;BME280;60547;48.502;8.996;2023-04-10T01:15:19;98493.28;;;3.29;75.35
72525;BME280;60547;48.502;8.996;2023-04-10T01:18:02;98496.88;;;3.33;75.19
72525;BME280;60547;48.502;8.996;2023-04-10T01:20:30;98498.03;;;3.32;75.32
72525;BME280;60547;48.502;8.996;2023-04-10T01:25:47;98497.34;;;3.39;74.74
72525;BME280;60547;48.502;8.996;2023-04-10T01:30:45;98494.88;;;3.30;75.63
72525;BME280;60547;48.502;8.996;2023-04-10T01:33:12;98488.50;;;3.22;74.91
72525;BME280;60547;48.502;8.996;2023-04-10T01:35:43;98490.31;;;3.11;75.60
72525;BME280;60547;48.502;8.996;2023-04-10T01:38:14;98486.56;;;2.97;76.02
72525;BME280;60547;48.502;8.996;2023-04-10T01:40:42;98488.22;;;3.01;75.31
72525;BME280;60547;48.502;8.996;2023-04-10T01:43:15;98494.41;;;2.95;76.04
72525;BME280;60547;48.502;8.996;2023-04-10T01:45:41;98482.97;;;2.92;75.86
72525;BME280;60547;48.502;8.996;2023-04-10T01:48:08;98480.56;;;2.87;75.64
72525;BME280;60547;48.502;8.996;2023-04-10T01:50:34;98489.53;;;2.84;75.58
72525;BME280;60547;48.502;8.996;2023-04-10T01:53:02;98485.63;;;2.85;75.59
72525;BME280;60547;48.502;8.996;2023-04-10T01:55:30;98478.88;;;2.79;75.54
72525;BME280;60547;48.502;8.996;2023-04-10T01:57:58;98474.53;;;2.78;75.99
72525;BME280;60547;48.502;8.996;2023-04-10T02:00:24;98471.41;;;2.80;75.84
72525;BME280;60547;48.502;8.996;2023-04-10T02:02:50;98476.38;;;2.71;76.00
72525;BME280;60547;48.502;8.996;2023-04-10T02:05:16;98476.75;;;2.69;75.91
72525;BME280;60547;48.502;8.996;2023-04-10T02:10:53;98483.41;;;2.68;76.68
72525;BME280;60547;48.502;8.996;2023-04-10T02:13:21;98474.22;;;2.57;76.88
72525;BME280;60547;48.502;8.996;2023-04-10T02:15:49;98480.03;;;2.52;77.21
72525;BME280;60547;48.502;8.996;2023-04-10T02:18:16;98473.25;;;2.46;76.66
72525;BME280;60547;48.502;8.996;2023-04-10T02:20:43;98490.16;;;2.48;76.68
72525;BME280;60547;48.502;8.996;2023-04-10T02:23:09;98485.03;;;2.46;77.06
72525;BME280;60547;48.502;8.996;2023-04-10T02:25:34;98482.72;;;2.48;77.28
72525;BME280;60547;48.502;8.996;2023-04-10T02:28:04;98474.78;;;2.43;76.65
72525;BME280;60547;48.502;8.996;2023-04-10T02:30:30;98473.03;;;2.32;77.04
72525;BME280;60547;48.502;8.996;2023-04-10T02:32:55;98469.97;;;2.37;76.98
72525;BME280;60547;48.502;8.996;2023-04-10T02:35:20;98474.63;;;2.33;76.93
72525;BME280;60547;48.502;8.996;2023-04-10T02:37:46;98480.78;;;2.26;77.06
72525;BME280;60547;48.502;8.996;2023-04-10T02:40:12;98476.16;;;2.30;77.21
72525;BME280;60547;48.502;8.996;2023-04-10T02:42:37;98484.75;;;2.29;77.60
72525;BME280;60547;48.502;8.996;2023-04-10T02:45:03;98475.25;;;2.22;78.21
72525;BME280;60547;48.502;8.996;2023-04-10T02:47:29;98470.78;;;2.14;77.84
72525;BME280;60547;48.502;8.996;2023-04-10T02:49:54;98493.19;;;2.16;77.71
72525;BME280;60547;48.502;8.996;2023-04-10T02:52:20;98497.50;;;2.17;77.74
72525;BME280;60547;48.502;8.996;2023-04-10T02:54:47;98500.69;;;2.19;77.88
72525;BME280;60547;48.502;8.996;2023-04-10T02:57:13;98497.13;;;2.19;77.20
72525;BME280;60547;48.502;8.996;2023-04-10T02:59:38;98494.28;;;2.12;77.97
72525;BME280;60547;48.502;8.996;2023-04-10T03:02:04;98503.19;;;2.05;77.25
72525;BME280;60547;48.502;8.996;2023-04-10T03:04:31;98503.91;;;2.02;76.71
72525;BME280;60547;48.502;8.996;2023-04-10T03:06:57;98499.16;;;1.99;76.08
72525;BME280;60547;48.502;8.996;2023-04-10T03:09:22;98498.94;;;1.88;76.63
72525;BME280;60547;48.502;8.996;2023-04-10T03:11:47;98500.78;;;1.81;76.87
72525;BME280;60547;48.502;8.996;2023-04-10T03:14:13;98493.88;;;1.68;77.18
72525;BME280;60547;48.502;8.996;2023-04-10T03:16:38;98496.47;;;1.60;77.71
72525;BME280;60547;48.502;8.996;2023-04-10T03:19:04;98480.31;;;1.55;78.38
72525;BME280;60547;48.502;8.996;2023-04-10T03:21:29;98489.66;;;1.74;78.17
72525;BME280;60547;48.502;8.996;2023-04-10T03:23:55;98489.97;;;1.69;77.82
72525;BME280;60547;48.502;8.996;2023-04-10T03:26:21;98467.31;;;1.52;79.03
72525;BME280;60547;48.502;8.996;2023-04-10T03:28:48;98485.22;;;1.66;78.84
72525;BME280;60547;48.502;8.996;2023-04-10T03:31:14;98483.13;;;1.59;79.03
72525;BME280;60547;48.502;8.996;2023-04-10T03:33:39;98477.69;;;1.63;79.78
72525;BME280;60547;48.502;8.996;2023-04-10T03:36:05;98477.34;;;1.64;78.52
72525;BME280;60547;48.502;8.996;2023-04-10T03:38:31;98480.44;;;1.63;78.92
72525;BME280;60547;48.502;8.996;2023-04-10T03:40:56;98475.69;;;1.59;79.47
72525;BME280;60547;48.502;8.996;2023-04-10T03:43:23;98469.47;;;1.63;79.95
72525;BME280;60547;48.502;8.996;2023-04-10T03:45:48;98466.31;;;1.60;79.02
72525;BME280;60547;48.502;8.996;2023-04-10T03:48:14;98463.94;;;1.59;79.23
72525;BME280;60547;48.502;8.996;2023-04-10T03:50:39;98461.63;;;1.61;79.57
72525;BME280;60547;48.502;8.996;2023-04-10T03:53:05;98459.53;;;1.54;79.64
72525;BME280;60547;48.502;8.996;2023-04-10T03:55:31;98465.81;;;1.55;79.26
72525;BME280;60547;48.502;8.996;2023-04-10T03:57:56;98459.09;;;1.52;80.06
72525;BME280;60547;48.502;8.996;2023-04-10T04:00:23;98468.19;;;1.56;80.15
72525;BME280;60547;48.502;8.996;2023-04-10T04:02:49;98467.81;;;1.58;79.73
72525;BME280;60547;48.502;8.996;2023-04-10T04:05:14;98461.53;;;1.57;79.99
72525;BME280;60547;48.502;8.996;2023-04-10T04:07:40;98459.78;;;1.69;78.98
72525;BME280;60547;48.502;8.996;2023-04-10T04:10:06;98459.63;;;1.81;78.32
72525;BME280;60547;48.502;8.996;2023-04-10T04:12:31;98452.56;;;1.80;78.43
72525;BME280;60547;48.502;8.996;2023-04-10T04:14:57;98453.88;;;1.67;79.55
72525;BME280;60547;48.502;8.996;2023-04-10T04:17:22;98453.59;;;1.72;79.24
72525;BME280;60547;48.502;8.996;2023-04-10T04:19:48;98446.75;;;1.62;79.16
72525;BME280;60547;48.502;8.996;2023-04-10T04:22:13;98443.56;;;1.60;79.08
72525;BME280;60547;48.502;8.996;2023-04-10T04:24:39;98443.38;;;1.49;79.87
72525;BME280;60547;48.502;8.996;2023-04-10T04:27:06;98441.00;;;1.48;80.16
72525;BME280;60547;48.502;8.996;2023-04-10T04:29:31;98436.97;;;1.42;80.26
72525;BME280;60547;48.502;8.996;2023-04-10T04:31:57;98451.59;;;1.49;80.68
72525;BME280;60547;48.502;8.996;2023-04-10T04:34:22;98448.78;;;1.46;80.19
72525;BME280;60547;48.502;8.996;2023-04-10T04:36:48;98449.59;;;1.46;80.27
72525;BME280;60547;48.502;8.996;2023-04-10T04:39:13;98447.56;;;1.43;80.99
72525;BME280;60547;48.502;8.996;2023-04-10T04:41:40;98447.06;;;1.38;80.69
72525;BME280;60547;48.502;8.996;2023-04-10T04:44:05;98443.41;;;1.30;81.37
72525;BME280;60547;48.502;8.996;2023-04-10T04:46:31;98449.75;;;1.34;81.83
72525;BME280;60547;48.502;8.996;2023-04-10T04:48:56;98456.00;;;1.35;82.46
72525;BME280;60547;48.502;8.996;2023-04-10T04:51:22;98453.34;;;1.38;81.98
72525;BME280;60547;48.502;8.996;2023-04-10T04:53:47;98449.00;;;1.37;81.37
72525;BME280;60547;48.502;8.996;2023-04-10T04:56:13;98445.84;;;1.35;81.66
72525;BME280;60547;48.502;8.996;2023-04-10T04:58:38;98448.16;;;1.33;81.62
72525;BME280;60547;48.502;8.996;2023-04-10T05:01:07;98443.03;;;1.32;81.89
72525;BME280;60547;48.502;8.996;2023-04-10T05:03:33;98450.75;;;1.45;81.57
72525;BME280;60547;48.502;8.996;2023-04-10T05:05:59;98443.25;;;1.42;81.45
72525;BME280;60547;48.502;8.996;2023-04-10T05:08:25;98462.06;;;1.44;81.30
72525;BME280;60547;48.502;8.996;2023-04-10T05:10:50;98458.03;;;1.38;80.97
72525;BME280;60547;48.502;8.996;2023-04-10T05:13:16;98458.66;;;1.50;80.13
72525;BME280;60547;48.502;8.996;2023-04-10T05:15:43;98467.88;;;1.61;79.97
72525;BME280;60547;48.502;8.996;2023-04-10T05:18:09;98475.09;;;1.70;78.90
72525;BME280;60547;48.502;8.996;2023-04-10T05:20:34;98471.19;;;1.71;79.10
72525;BME280;60547;48.502;8.996;2023-04-10T05:23:00;98469.59;;;1.70;78.60
72525;BME280;60547;48.502;8.996;2023-04-10T05:25:26;98466.00;;;1.66;79.05
72525;BME280;60547;48.502;8.996;2023-04-10T05:27:52;98467.97;;;1.65;79.16
72525;BME280;60547;48.502;8.996;2023-04-10T05:30:17;98480.59;;;1.70;79.37
72525;BME280;60547;48.502;8.996;2023-04-10T05:32:43;98482.97;;;1.71;80.46
72525;BME280;60547;48.502;8.996;2023-04-10T05:35:10;98486.50;;;1.72;79.73
72525;BME280;60547;48.502;8.996;2023-04-10T05:37:36;98471.25;;;1.74;80.23
72525;BME280;60547;48.502;8.996;2023-04-10T05:40:01;98463.66;;;1.87;79.43
72525;BME280;60547;48.502;8.996;2023-04-10T05:42:27;98470.13;;;1.98;78.62
72525;BME280;60547;48.502;8.996;2023-04-10T05:44:53;98475.59;;;1.98;78.25
72525;BME280;60547;48.502;8.996;2023-04-10T05:47:18;98477.63;;;2.01;77.85
72525;BME280;60547;48.502;8.996;2023-04-10T05:49:44;98483.66;;;2.10;77.66
72525;BME280;60547;48.502;8.996;2023-04-10T05:52:09;98465.44;;;1.99;77.59
72525;BME280;60547;48.502;8.996;2023-04-10T05:54:35;98465.50;;;2.02;77.36
72525;BME280;60547;48.502;8.996;2023-04-10T05:57:00;98480.56;;;2.12;77.24
72525;BME280;60547;48.502;8.996;2023-04-10T05:59:26;98477.38;;;2.10;77.42
72525;BME280;60547;48.502;8.996;2023-04-10T06:01:52;98494.88;;;2.24;76.88
72525;BME280;60547;48.502;8.996;2023-04-10T06:04:17;98484.28;;;2.23;76.93
72525;BME280;60547;48.502;8.996;2023-04-10T06:06:45;98480.41;;;2.28;76.94
72525;BME280;60547;48.502;8.996;2023-04-10T06:09:11;98474.69;;;2.36;76.30
72525;BME280;60547;48.502;8.996;2023-04-10T06:11:36;98484.72;;;2.51;76.80
72525;BME280;60547;48.502;8.996;2023-04-10T06:14:02;98484.88;;;2.62;76.41
72525;BME280;60547;48.502;8.996;2023-04-10T06:16:27;98478.06;;;2.79;75.72
72525;BME280;60547;48.502;8.996;2023-04-10T06:18:53;98468.19;;;2.74;75.22
72525;BME280;60547;48.502;8.996;2023-04-10T06:21:18;98476.13;;;2.79;75.88
72525;BME280;60547;48.502;8.996;2023-04-10T06:23:44;98472.63;;;2.82;76.14
72525;BME280;60547;48.502;8.996;2023-04-10T06:26:10;98473.94;;;2.92;75.32
72525;BME280;60547;48.502;8.996;2023-04-10T06:28:36;98485.09;;;3.03;75.16
72525;BME280;60547;48.502;8.996;2023-04-10T06:31:01;98473.25;;;2.99;74.69
72525;BME280;60547;48.502;8.996;2023-04-10T06:33:28;98479.72;;;3.13;74.71
72525;BME280;60547;48.502;8.996;2023-04-10T06:35:54;98471.16;;;3.18;74.36
72525;BME280;60547;48.502;8.996;2023-04-10T06:38:20;98469.63;;;3.21;73.80
72525;BME280;60547;48.502;8.996;2023-04-10T06:40:45;98469.41;;;3.37;73.82
72525;BME280;60547;48.502;8.996;2023-04-10T06:43:11;98453.81;;;3.48;72.88
72525;BME280;60547;48.502;8.996;2023-04-10T06:45:36;98458.34;;;3.67;72.50
72525;BME280;60547;48.502;8.996;2023-04-10T06:48:02;98463.59;;;3.79;72.61
72525;BME280;60547;48.502;8.996;2023-04-10T06:50:28;98465.81;;;4.03;71.79
72525;BME280;60547;48.502;8.996;2023-04-10T06:52:54;98459.53;;;4.06;71.38
72525;BME280;60547;48.502;8.996;2023-04-10T06:55:20;98467.56;;;4.26;70.78
72525;BME280;60547;48.502;8.996;2023-04-10T06:57:46;98457.06;;;4.38;70.56
72525;BME280;60547;48.502;8.996;2023-04-10T07:00:12;98452.63;;;4.27;71.33
72525;BME280;60547;48.502;8.996;2023-04-10T07:02:37;98446.31;;;4.22;71.96
72525;BME280;60547;48.502;8.996;2023-04-10T07:05:03;98442.59;;;4.52;70.76
72525;BME280;60547;48.502;8.996;2023-04-10T07:07:29;98433.28;;;4.74;70.40
72525;BME280;60547;48.502;8.996;2023-04-10T07:09:54;98441.25;;;4.90;69.64
72525;BME280;60547;48.502;8.996;2023-04-10T07:12:22;98429.50;;;5.00;69.56
72525;BME280;60547;48.502;8.996;2023-04-10T07:14:48;98433.41;;;4.96;69.82
72525;BME280;60547;48.502;8.996;2023-04-10T07:17:13;98421.66;;;5.06;69.75
72525;BME280;60547;48.502;8.996;2023-04-10T07:19:38;98424.06;;;5.22;70.14
72525;BME280;60547;48.502;8.996;2023-04-10T07:22:04;98430.06;;;5.45;69.33
72525;BME280;60547;48.502;8.996;2023-04-10T07:24:30;98422.19;;;5.47;69.91
72525;BME280;60547;48.502;8.996;2023-04-10T07:26:56;98426.19;;;5.71;69.73
72525;BME280;60547;48.502;8.996;2023-04-10T07:29:22;98425.88;;;5.90;68.76
72525;BME280;60547;48.502;8.996;2023-04-10T07:31:48;98434.94;;;5.91;68.25
72525;BME280;60547;48.502;8.996;2023-04-10T07:34:13;98417.59;;;5.97;69.17
72525;BME280;60547;48.502;8.996;2023-04-10T07:36:39;98419.97;;;6.17;68.20
72525;BME280;60547;48.502;8.996;2023-04-10T07:39:04;98429.03;;;6.42;68.43
72525;BME280;60547;48.502;8.996;2023-04-10T07:41:30;98410.09;;;6.44;68.17
72525;BME280;60547;48.502;8.996;2023-04-10T07:43:55;98420.34;;;6.47;68.57
72525;BME280;60547;48.502;8.996;2023-04-10T07:46:21;98417.16;;;6.66;68.42
72525;BME280;60547;48.502;8.996;2023-04-10T07:48:46;98436.84;;;7.00;67.92
72525;BME280;60547;48.502;8.996;2023-04-10T07:51:13;98429.75;;;6.92;68.77
72525;BME280;60547;48.502;8.996;2023-04-10T07:53:38;98432.94;;;6.91;70.18
72525;BME280;60547;48.502;8.996;2023-04-10T07:56:04;98424.53;;;7.19;67.72
72525;BME280;60547;48.502;8.996;2023-04-10T07:58:30;98419.28;;;7.42;67.91
72525;BME280;60547;48.502;8.996;2023-04-10T08:00:57;98422.47;;;7.37;68.01
72525;BME280;60547;48.502;8.996;2023-04-10T08:03:23;98418.53;;;7.35;68.45
72525;BME280;60547;48.502;8.996;2023-04-10T08:05:48;98410.75;;;7.08;69.56
72525;BME280;60547;48.502;8.996;2023-04-10T08:08:15;98416.94;;;7.37;69.03
72525;BME280;60547;48.502;8.996;2023-04-10T08:10:41;98411.66;;;7.68;67.86
72525;BME280;60547;48.502;8.996;2023-04-10T08:13:07;98402.19;;;7.62;67.19
72525;BME280;60547;48.502;8.996;2023-04-10T08:15:33;98404.16;;;7.61;67.98
72525;BME280;60547;48.502;8.996;2023-04-10T08:17:58;98389.44;;;7.75;67.88
72525;BME280;60547;48.502;8.996;2023-04-10T08:20:24;98394.91;;;7.86;66.79
72525;BME280;60547;48.502;8.996;2023-04-10T08:22:49;98400.75;;;8.02;66.73
72525;BME280;60547;48.502;8.996;2023-04-10T08:25:15;98397.75;;;8.34;66.61
72525;BME280;60547;48.502;8.996;2023-04-10T08:27:40;98390.03;;;8.52;65.25
72525;BME280;60547;48.502;8.996;2023-04-10T08:30:06;98392.31;;;8.64;63.66
72525;BME280;60547;48.502;8.996;2023-04-10T08:32:32;98385.03;;;8.78;63.36
72525;BME280;60547;48.502;8.996;2023-04-10T08:34:57;98390.44;;;8.92;64.11
72525;BME280;60547;48.502;8.996;2023-04-10T08:37:24;98380.56;;;8.87;64.21
72525;BME280;60547;48.502;8.996;2023-04-10T08:39:51;98386.22;;;9.14;62.23
72525;BME280;60547;48.502;8.996;2023-04-10T08:42:16;98383.72;;;9.23;62.36
72525;BME280;60547;48.502;8.996;2023-04-10T08:44:42;98379.06;;;9.13;64.12
72525;BME280;60547;48.502;8.996;2023-04-10T08:47:08;98367.78;;;9.27;62.78
72525;BME280;60547;48.502;8.996;2023-04-10T08:49:52;98381.06;;;9.74;61.75
72525;BME280;60547;48.502;8.996;2023-04-10T08:52:20;98380.84;;;9.88;60.41
72525;BME280;60547;48.502;8.996;2023-04-10T08:54:50;98385.50;;;9.94;61.00
72525;BME280;60547;48.502;8.996;2023-04-10T08:57:18;98380.09;;;10.11;59.46
72525;BME280;60547;48.502;8.996;2023-04-10T08:59:45;98367.69;;;10.15;60.71
72525;BME280;60547;48.502;8.996;2023-04-10T09:02:12;98367.44;;;10.33;58.34
72525;BME280;60547;48.502;8.996;2023-04-10T09:04:38;98366.94;;;10.38;58.37
72525;BME280;60547;48.502;8.996;2023-04-10T09:07:04;98367.28;;;10.63;56.97
72525;BME280;60547;48.502;8.996;2023-04-10T09:09:29;98364.41;;;10.90;56.41
72525;BME280;60547;48.502;8.996;2023-04-10T09:12:00;98375.47;;;10.94;53.85
72525;BME280;60547;48.502;8.996;2023-04-10T09:14:30;98364.47;;;11.07;54.65
72525;BME280;60547;48.502;8.996;2023-04-10T09:17:15;98360.13;;;11.25;52.96
72525;BME280;60547;48.502;8.996;2023-04-10T09:19:43;98368.81;;;11.47;53.85
72525;BME280;60547;48.502;8.996;2023-04-10T09:22:08;98355.00;;;11.60;52.33
72525;BME280;60547;48.502;8.996;2023-04-10T09:24:35;98353.66;;;11.84;50.84
72525;BME280;60547;48.502;8.996;2023-04-10T09:27:02;98356.09;;;11.82;49.39
72525;BME280;60547;48.502;8.996;2023-04-10T09:29:38;98347.91;;;11.91;48.40
72525;BME280;60547;48.502;8.996;2023-04-10T09:32:04;98341.13;;;11.92;49.41
72525;BME280;60547;48.502;8.996;2023-04-10T09:34:29;98335.38;;;12.16;47.71
72525;BME280;60547;48.502;8.996;2023-04-10T09:36:56;98325.97;;;12.10;47.46
72525;BME280;60547;48.502;8.996;2023-04-10T09:39:32;98311.44;;;12.47;48.33
72525;BME280;60547;48.502;8.996;2023-04-10T09:41:58;98302.53;;;12.52;46.56
72525;BME280;60547;48.502;8.996;2023-04-10T09:44:30;98300.78;;;12.58;45.65
72525;BME280;60547;48.502;8.996;2023-04-10T09:46:57;98305.47;;;12.90;46.39
72525;BME280;60547;48.502;8.996;2023-04-10T09:49:23;98300.81;;;13.00;45.21
72525;BME280;60547;48.502;8.996;2023-04-10T09:51:48;98297.47;;;13.05;41.99
72525;BME280;60547;48.502;8.996;2023-04-10T09:54:14;98286.41;;;13.14;41.49
72525;BME280;60547;48.502;8.996;2023-04-10T09:56:40;98289.50;;;13.33;42.60
72525;BME280;60547;48.502;8.996;2023-04-10T09:59:06;98283.47;;;13.72;43.23
72525;BME280;60547;48.502;8.996;2023-04-10T10:01:32;98272.38;;;13.81;40.57
72525;BME280;60547;48.502;8.996;2023-04-10T10:04:01;98271.16;;;13.82;40.37
72525;BME280;60547;48.502;8.996;2023-04-10T10:06:29;98264.50;;;14.02;40.75
72525;BME280;60547;48.502;8.996;2023-04-10T10:09:00;98265.78;;;14.35;39.37
72525;BME280;60547;48.502;8.996;2023-04-10T10:11:28;98256.25;;;14.45;37.97
72525;BME280;60547;48.502;8.996;2023-04-10T10:13:57;98256.31;;;14.54;38.85
72525;BME280;60547;48.502;8.996;2023-04-10T10:16:30;98247.53;;;14.65;38.09
72525;BME280;60547;48.502;8.996;2023-04-10T10:21:39;98230.91;;;14.93;36.38
72525;BME280;60547;48.502;8.996;2023-04-10T10:24:08;98228.28;;;14.98;34.52
72525;BME280;60547;48.502;8.996;2023-04-10T10:26:36;98230.44;;;15.56;38.02
72525;BME280;60547;48.502;8.996;2023-04-10T10:29:04;98224.00;;;15.87;36.03
72525;BME280;60547;48.502;8.996;2023-04-10T10:31:32;98216.03;;;15.85;32.40
72525;BME280;60547;48.502;8.996;2023-04-10T10:33:59;98199.06;;;15.89;32.78
72525;BME280;60547;48.502;8.996;2023-04-10T10:36:29;98203.16;;;16.24;31.30
72525;BME280;60547;48.502;8.996;2023-04-10T10:41:59;98187.53;;;16.51;30.39
72525;BME280;60547;48.502;8.996;2023-04-10T10:47:20;98177.56;;;16.68;29.41
72525;BME280;60547;48.502;8.996;2023-04-10T10:50:01;98167.56;;;16.48;28.17
72525;BME280;60547;48.502;8.996;2023-04-10T10:52:37;98173.81;;;16.53;27.34
72525;BME280;60547;48.502;8.996;2023-04-10T10:57:50;98167.13;;;17.10;28.22
72525;BME280;60547;48.502;8.996;2023-04-10T11:00:22;98160.28;;;17.02;27.83
72525;BME280;60547;48.502;8.996;2023-04-10T11:08:17;98171.28;;;17.57;26.46
72525;BME280;60547;48.502;8.996;2023-04-10T11:11:13;98157.69;;;17.89;25.60
72525;BME280;60547;48.502;8.996;2023-04-10T11:13:42;98164.38;;;17.91;24.17
72525;BME280;60547;48.502;8.996;2023-04-10T11:21:25;98148.44;;;18.12;23.39
72525;BME280;60547;48.502;8.996;2023-04-10T11:31:37;98147.53;;;18.45;22.63
72525;BME280;60547;48.502;8.996;2023-04-10T11:34:07;98135.38;;;18.00;22.60
72525;BME280;60547;48.502;8.996;2023-04-10T11:36:38;98125.50;;;18.04;22.52
72525;BME280;60547;48.502;8.996;2023-04-10T11:41:32;98132.78;;;18.79;22.11
72525;BME280;60547;48.502;8.996;2023-04-10T11:43:58;98128.44;;;19.28;24.01
72525;BME280;60547;48.502;8.996;2023-04-10T11:46:24;98119.63;;;19.55;23.71
72525;BME280;60547;48.502;8.996;2023-04-10T11:49:03;98128.00;;;20.05;24.20
72525;BME280;60547;48.502;8.996;2023-04-10T11:51:30;98127.56;;;20.12;21.93
72525;BME280;60547;48.502;8.996;2023-04-10T11:54:09;98130.97;;;19.76;20.81
72525;BME280;60547;48.502;8.996;2023-04-10T11:56:36;98136.44;;;19.64;20.88
72525;BME280;60547;48.502;8.996;2023-04-10T11:59:02;98122.19;;;19.53;21.13
72525;BME280;60547;48.502;8.996;2023-04-10T12:01:32;98116.84;;;19.76;21.55
72525;BME280;60547;48.502;8.996;2023-04-10T12:03:58;98111.88;;;19.00;21.25
72525;BME280;60547;48.502;8.996;2023-04-10T12:06:24;98108.66;;;19.78;23.71
72525;BME280;60547;48.502;8.996;2023-04-10T12:08:49;98108.50;;;20.07;21.48
72525;BME280;60547;48.502;8.996;2023-04-10T12:11:23;98084.19;;;19.95;20.58
72525;BME280;60547;48.502;8.996;2023-04-10T12:13:52;98096.84;;;20.46;19.94
72525;BME280;60547;48.502;8.996;2023-04-10T12:16:18;98089.13;;;20.72;21.63
72525;BME280;60547;48.502;8.996;2023-04-10T12:18:44;98092.88;;;20.12;20.26
72525;BME280;60547;48.502;8.996;2023-04-10T12:21:10;98092.66;;;20.15;20.09
72525;BME280;60547;48.502;8.996;2023-04-10T12:23:37;98078.13;;;20.02;21.18
72525;BME280;60547;48.502;8.996;2023-04-10T12:26:16;98078.81;;;20.17;20.07
72525;BME280;60547;48.502;8.996;2023-04-10T12:28:53;98078.63;;;20.47;21.56
72525;BME280;60547;48.502;8.996;2023-04-10T12:31:32;98064.97;;;20.45;20.54
72525;BME280;60547;48.502;8.996;2023-04-10T12:33:59;98068.88;;;20.27;20.18
72525;BME280;60547;48.502;8.996;2023-04-10T12:36:29;98078.41;;;19.84;20.81
72525;BME280;60547;48.502;8.996;2023-04-10T12:39:02;98065.28;;;19.60;20.04
72525;BME280;60547;48.502;8.996;2023-04-10T12:41:31;98064.91;;;20.14;20.10
72525;BME280;60547;48.502;8.996;2023-04-10T12:44:11;98060.25;;;20.11;21.05
72525;BME280;60547;48.502;8.996;2023-04-10T12:46:37;98061.75;;;19.86;20.20
72525;BME280;60547;48.502;8.996;2023-04-10T12:49:16;98061.09;;;20.43;20.84
72525;BME280;60547;48.502;8.996;2023-04-10T12:51:49;98062.94;;;20.46;20.53
72525;BME280;60547;48.502;8.996;2023-04-10T12:54:32;98052.44;;;20.52;19.54
72525;BME280;60547;48.502;8.996;2023-04-10T12:56:59;98049.66;;;20.31;19.38
72525;BME280;60547;48.502;8.996;2023-04-10T12:59:26;98044.69;;;20.47;22.28
72525;BME280;60547;48.502;8.996;2023-04-10T13:01:52;98038.84;;;20.30;21.30
72525;BME280;60547;48.502;8.996;2023-04-10T13:04:18;98033.91;;;19.99;21.41
72525;BME280;60547;48.502;8.996;2023-04-10T13:06:45;98040.13;;;20.03;21.33
72525;BME280;60547;48.502;8.996;2023-04-10T13:09:14;98039.31;;;19.77;20.83
72525;BME280;60547;48.502;8.996;2023-04-10T13:11:40;98037.09;;;19.86;21.47
72525;BME280;60547;48.502;8.996;2023-04-10T13:14:07;98026.25;;;19.79;20.95
72525;BME280;60547;48.502;8.996;2023-04-10T13:16:33;98024.03;;;19.48;21.17
72525;BME280;60547;48.502;8.996;2023-04-10T13:18:59;98032.91;;;19.21;22.08
72525;BME280;60547;48.502;8.996;2023-04-10T13:21:25;98029.97;;;19.30;21.28
72525;BME280;60547;48.502;8.996;2023-04-10T13:23:53;98023.41;;;19.39;22.18
72525;BME280;60547;48.502;8.996;2023-04-10T13:26:20;98019.88;;;19.23;21.44
72525;BME280;60547;48.502;8.996;2023-04-10T13:28:45;98030.03;;;19.15;20.94
72525;BME280;60547;48.502;8.996;2023-04-10T13:31:11;98019.34;;;19.04;21.12
72525;BME280;60547;48.502;8.996;2023-04-10T13:33:36;98013.88;;;19.16;22.48
72525;BME280;60547;48.502;8.996;2023-04-10T13:36:03;98016.34;;;19.28;21.33
72525;BME280;60547;48.502;8.996;2023-04-10T13:38:29;98022.63;;;19.38;24.16
72525;BME280;60547;48.502;8.996;2023-04-10T13:40:54;98016.19;;;19.17;22.50
72525;BME280;60547;48.502;8.996;2023-04-10T13:43:20;98006.19;;;19.16;23.07
72525;BME280;60547;48.502;8.996;2023-04-10T13:45:45;98003.00;;;19.09;21.59
72525;BME280;60547;48.502;8.996;2023-04-10T13:48:11;97997.03;;;18.86;22.28
72525;BME280;60547;48.502;8.996;2023-04-10T13:50:36;97999.75;;;18.95;22.74